Time;durP1;ratioP1;P1;durP2;ratioP2;P2;SDS_P1;SDS_P2;PMS_P1;PMS_P2;Temp;Humidity;BMP_temperature;BMP_pressure;BME280_temperature;BME280_humidity;BME280_pressure;Samples;Min_cycle;Max_cycle;Signal;HPM_P1;HPM_P2
2021/12/26 00:01:13;;;;;;;15.87;10.00;;;;;;;-4.50;64.53;99950.88;1710830;82;21547;-74
2021/12/26 00:03:40;;;;;;;15.70;11.30;;;;;;;-4.51;64.67;99948.73;1702131;82;21048;-75
2021/12/26 00:06:12;;;;;;;15.47;11.57;;;;;;;-4.44;64.62;99956.15;1710689;82;21018;-75
2021/12/26 00:08:42;;;;;;;13.53;9.87;;;;;;;-4.43;64.63;99964.30;1711026;82;21076;-78
2021/12/26 00:11:10;;;;;;;15.70;10.37;;;;;;;-4.39;64.50;99958.81;1700960;82;21095;-75
2021/12/26 00:13:38;;;;;;;10.57;8.07;;;;;;;-4.41;64.58;99958.53;1709151;82;21446;-77
2021/12/26 00:16:07;;;;;;;7.07;5.83;;;;;;;-4.51;64.56;99957.83;1697557;82;21602;-77
2021/12/26 00:18:41;;;;;;;8.23;6.20;;;;;;;-4.54;64.52;99957.20;1703940;82;21032;-76
2021/12/26 00:21:06;;;;;;;10.73;8.30;;;;;;;-4.60;64.73;99960.21;1705526;82;21024;-78
2021/12/26 00:23:32;;;;;;;8.03;5.28;;;;;;;-4.66;64.76;99966.64;1703544;82;21548;-78
2021/12/26 00:25:58;;;;;;;5.70;4.83;;;;;;;-4.70;64.96;99970.39;1710644;82;21071;-77
2021/12/26 00:28:24;;;;;;;;;;;;;;;-4.72;65.09;99982.66;1706195;82;21070;-78
2021/12/26 00:30:52;;;;;;;10.13;5.77;;;;;;;-4.75;65.06;99982.37;1709282;82;20222;-78
2021/12/26 00:33:22;;;;;;;8.73;5.70;;;;;;;-4.79;65.23;99980.08;1699538;82;21536;-79
2021/12/26 00:35:48;;;;;;;8.60;5.57;;;;;;;-4.79;65.46;99979.60;1697361;82;21020;-77
2021/12/26 00:38:16;;;;;;;15.43;6.92;;;;;;;-4.75;65.49;99963.34;1701676;82;21028;-76
2021/12/26 00:40:42;;;;;;;21.50;6.37;;;;;;;-4.62;65.50;99980.29;1708867;82;20992;-77
2021/12/26 00:43:09;;;;;;;8.30;5.83;;;;;;;-4.54;65.29;99968.91;1695181;82;21017;-76
2021/12/26 00:45:35;;;;;;;;;;;;;;;-4.51;65.16;99965.64;1703794;82;21039;-77
2021/12/26 00:48:04;;;;;;;8.13;5.40;;;;;;;-4.45;64.94;99972.68;1697765;82;20131;-74
2021/12/26 00:50:35;;;;;;;8.20;5.73;;;;;;;-4.50;64.96;99963.89;1702615;82;21101;-78
2021/12/26 00:53:01;;;;;;;9.07;5.67;;;;;;;-4.48;65.08;99975.47;1709496;82;21072;-76
2021/12/26 00:55:29;;;;;;;9.10;5.47;;;;;;;-4.47;65.26;99968.88;1703588;82;21042;-73
2021/12/26 00:57:56;;;;;;;9.63;4.62;;;;;;;-4.45;65.26;99975.28;1717171;82;21004;-75
2021/12/26 01:00:30;;;;;;;9.33;4.80;;;;;;;-4.43;65.33;99977.31;1709523;82;21557;-76
2021/12/26 01:03:00;;;;;;;6.00;3.87;;;;;;;-4.44;65.35;99969.98;1701747;82;21520;-75
2021/12/26 01:05:28;;;;;;;9.13;3.93;;;;;;;-4.43;65.10;99966.43;1707704;82;21463;-76
2021/12/26 01:08:00;;;;;;;8.27;5.53;;;;;;;-4.51;64.87;99968.23;1695187;82;21047;-75
2021/12/26 01:10:36;;;;;;;6.63;4.70;;;;;;;-4.61;64.82;99963.29;1704576;82;21527;-75
2021/12/26 01:13:15;;;;;;;9.80;5.37;;;;;;;-4.71;65.01;99972.16;1698721;82;21031;-74
2021/12/26 01:15:36;;;;;;;8.50;5.63;;;;;;;-4.78;65.40;99963.56;1657940;84;21035;-75
2021/12/26 01:18:04;;;;;;;9.13;4.17;;;;;;;-4.78;65.61;99966.98;1702567;82;21064;-74
2021/12/26 01:20:54;;;;;;;5.23;4.60;;;;;;;-4.78;65.67;99959.66;1692740;82;21066;-73
2021/12/26 01:24:59;;;;;;;6.03;4.43;;;;;;;-4.73;65.88;99962.33;1788938;78;22255;-72
2021/12/26 01:27:27;;;;;;;7.37;5.17;;;;;;;-4.73;65.87;99967.53;1729978;80;20994;-74
2021/12/26 01:29:54;;;;;;;9.27;5.13;;;;;;;-4.70;65.87;99974.28;1747409;80;21092;-75
2021/12/26 01:32:22;;;;;;;7.53;4.00;;;;;;;-4.74;65.72;99974.12;1750152;80;21058;-74
2021/12/26 01:35:00;;;;;;;6.47;4.07;;;;;;;-4.76;65.68;99969.49;1701272;80;21021;-75
2021/12/26 01:37:40;;;;;;;11.87;5.60;;;;;;;-4.87;65.89;99975.38;1699256;83;21161;-77
2021/12/26 01:40:20;;;;;;;7.10;4.43;;;;;;;-4.95;66.11;99978.47;1684884;83;21117;-75
2021/12/26 01:42:54;;;;;;;6.80;5.33;;;;;;;-4.96;66.23;99980.69;1700341;83;21002;-75
2021/12/26 01:45:38;;;;;;;9.50;5.77;;;;;;;-4.98;66.21;99982.55;1692880;83;21174;-75
2021/12/26 01:48:06;;;;;;;12.13;5.53;;;;;;;-4.96;66.18;99990.26;1693209;83;21115;-73
2021/12/26 01:50:36;;;;;;;9.30;5.37;;;;;;;-4.94;66.07;99989.69;1697794;83;21037;-74
2021/12/26 01:53:06;;;;;;;8.43;5.07;;;;;;;-4.94;66.05;99991.81;1689645;83;21610;-74
2021/12/26 01:55:42;;;;;;;8.47;5.23;;;;;;;-4.90;66.06;99992.46;1696463;83;20986;-75
2021/12/26 01:58:22;;;;;;;9.30;6.03;;;;;;;-4.90;65.97;99989.86;1693107;83;21079;-76
2021/12/26 02:00:55;;;;;;;8.07;5.37;;;;;;;-4.89;65.73;99984.56;1673696;83;21016;-75
2021/12/26 02:03:21;;;;;;;10.43;5.17;;;;;;;-4.93;65.86;99983.10;1703840;83;21072;-75
2021/12/26 02:05:48;;;;;;;;;;;;;;;-4.91;65.74;99982.53;1705544;83;20990;-76
2021/12/26 02:08:15;;;;;;;6.77;4.90;;;;;;;-4.94;65.84;99989.69;1703780;83;20134;-76
2021/12/26 02:10:45;;;;;;;8.40;5.40;;;;;;;-5.02;65.99;99987.58;1689416;83;21113;-75
2021/12/26 02:13:12;;;;;;;9.07;5.00;;;;;;;-5.06;66.17;99996.52;1674023;83;21262;-76
2021/12/26 02:15:40;;;;;;;8.43;4.67;;;;;;;-5.36;66.38;99942.94;1703918;83;20968;-75
2021/12/26 02:18:12;;;;;;;7.67;4.83;;;;;;;-5.09;65.99;99997.52;1701729;83;21128;-74
2021/12/26 02:21:03;;;;;;;7.67;4.83;;;;;;;-5.18;66.04;99998.56;1698657;83;21498;-72
2021/12/26 02:23:20;;;;;;;8.77;6.17;;;;;;;-5.24;66.18;99991.98;1690762;83;21091;-74
2021/12/26 02:28:13;;;;;;;7.70;5.47;;;;;;;-5.30;66.49;99995.80;1693630;83;21559;-74
2021/12/26 02:30:41;;;;;;;8.83;5.73;;;;;;;-5.31;66.61;99995.45;1699167;83;21030;-73
2021/12/26 02:33:11;;;;;;;7.23;5.30;;;;;;;-5.29;66.50;99998.78;1694471;83;21067;-73
2021/12/26 02:35:40;;;;;;;11.10;5.67;;;;;;;-5.28;66.53;99995.23;1696063;83;21022;-75
2021/12/26 02:38:08;;;;;;;10.37;5.77;;;;;;;-5.24;66.57;100004.98;1694125;83;20972;-74
2021/12/26 02:40:37;;;;;;;11.93;6.33;;;;;;;-5.29;66.36;100002.68;1677162;83;21014;-73
2021/12/26 02:43:06;;;;;;;9.77;6.00;;;;;;;-5.32;66.51;100006.76;1698523;83;21096;-73
2021/12/26 02:45:34;;;;;;;8.40;6.23;;;;;;;-5.31;66.71;100005.84;1692390;82;21117;-74
2021/12/26 02:48:05;;;;;;;11.70;6.63;;;;;;;-5.26;66.74;100006.02;1688275;83;21114;-76
2021/12/26 02:50:31;;;;;;;11.33;7.63;;;;;;;-5.25;66.72;100011.13;1702302;83;21074;-74
2021/12/26 02:53:01;;;;;;;9.63;6.70;;;;;;;-5.20;66.67;100010.83;1697285;83;21061;-75
2021/12/26 02:55:28;;;;;;;12.87;6.47;;;;;;;-5.20;66.61;100016.02;1699904;80;21132;-75
2021/12/26 02:58:03;;;;;;;11.70;6.67;;;;;;;-5.18;66.44;100019.36;1698532;83;21045;-76
2021/12/26 03:00:33;;;;;;;14.07;7.93;;;;;;;-5.21;66.46;100015.66;1695320;82;21646;-77
2021/12/26 03:03:04;;;;;;;9.07;6.30;;;;;;;-5.23;66.37;100014.94;1700122;83;21492;-75
2021/12/26 03:05:37;;;;;;;11.83;6.33;;;;;;;-5.26;66.43;100015.94;1700469;83;21575;-75
2021/12/26 03:08:11;;;;;;;10.07;7.50;;;;;;;-5.29;66.55;100023.94;1689336;83;21044;-76
2021/12/26 03:10:39;;;;;;;6.87;5.73;;;;;;;-5.28;66.61;100026.89;1686436;83;21455;-75
2021/12/26 03:13:10;;;;;;;10.27;6.30;;;;;;;-5.26;66.67;100030.70;1707366;80;20998;-76
2021/12/26 03:15:39;;;;;;;9.47;6.67;;;;;;;-5.22;66.51;100034.30;1674449;84;21058;-77
2021/12/26 03:18:07;;;;;;;10.23;6.23;;;;;;;-5.20;66.42;100039.41;1663493;85;21065;-77
2021/12/26 03:20:39;;;;;;;11.30;6.20;;;;;;;-5.22;66.27;100034.30;1674565;84;21168;-77
2021/12/26 03:23:07;;;;;;;9.53;6.27;;;;;;;-5.23;66.30;100037.84;1671096;84;21169;-76
2021/12/26 03:25:36;;;;;;;8.23;6.07;;;;;;;-5.23;66.37;100038.31;1648233;85;21099;-72
2021/12/26 03:28:06;;;;;;;11.13;6.37;;;;;;;-5.19;66.34;100044.52;1632279;85;21050;-76
2021/12/26 03:30:34;;;;;;;11.07;7.90;;;;;;;-5.25;66.20;100046.20;1639834;85;21075;-73
2021/12/26 03:33:04;;;;;;;11.37;6.53;;;;;;;-5.28;66.26;100048.97;1655688;85;21078;-73
2021/12/26 03:35:32;;;;;;;10.17;6.17;;;;;;;-5.34;66.31;100048.89;1656356;85;21027;-73
2021/12/26 03:38:00;;;;;;;15.20;6.43;;;;;;;-5.37;66.49;100041.74;1655941;85;21097;-72
2021/12/26 03:40:39;;;;;;;9.50;6.83;;;;;;;-5.39;66.62;100043.13;1635423;85;21011;-75
2021/12/26 03:43:07;;;;;;;9.87;6.50;;;;;;;-5.35;66.63;100047.23;1665984;85;21103;-74
2021/12/26 03:45:35;;;;;;;8.83;6.77;;;;;;;-5.35;66.77;100044.64;1642968;85;21058;-73
2021/12/26 03:48:03;;;;;;;12.73;6.13;;;;;;;-5.30;66.62;100040.45;1627654;86;21106;-73
2021/12/26 03:50:31;;;;;;;10.90;7.10;;;;;;;-5.29;66.55;100038.23;1643826;84;21056;-75
2021/12/26 03:52:58;;;;;;;12.73;6.70;;;;;;;-5.25;66.47;100041.48;1635181;86;21149;-75
2021/12/26 03:55:25;;;;;;;11.07;7.10;;;;;;;-5.22;66.44;100039.97;1621075;85;21068;-74
2021/12/26 03:57:54;;;;;;;9.80;6.10;;;;;;;-5.22;66.25;100047.77;1628240;86;21028;-78
2021/12/26 04:00:25;;;;;;;13.57;7.37;;;;;;;-5.26;66.31;100044.98;1626103;86;21042;-79
2021/12/26 04:02:53;;;;;;;10.40;5.83;;;;;;;-5.25;66.28;100053.17;1657894;85;21022;-77
2021/12/26 04:05:20;;;;;;;13.43;6.50;;;;;;;-5.30;66.28;100047.77;1650530;85;20999;-76
2021/12/26 04:07:48;;;;;;;14.47;7.93;;;;;;;-5.29;66.27;100048.15;1632411;86;21136;-76
2021/12/26 04:10:17;;;;;;;17.53;10.83;;;;;;;-5.30;66.36;100050.84;1606033;87;22446;-78
2021/12/26 04:12:47;;;;;;;18.17;10.47;;;;;;;-5.33;66.32;100054.47;1605023;85;21081;-77
2021/12/26 04:15:16;;;;;;;18.97;13.53;;;;;;;-5.35;66.32;100055.03;1606334;87;21077;-75
2021/12/26 04:17:44;;;;;;;21.13;15.83;;;;;;;-5.37;66.45;100056.89;1615501;88;21054;-79
2021/12/26 04:20:12;;;;;;;25.32;16.73;;;;;;;-5.36;66.52;100057.72;1631787;86;21474;-77
2021/12/26 04:22:39;;;;;;;27.20;17.97;;;;;;;-5.38;66.66;100057.80;1622660;84;21114;-76
2021/12/26 04:25:08;;;;;;;22.17;14.63;;;;;;;-5.36;66.64;100059.02;1646685;85;21168;-75
2021/12/26 04:27:35;;;;;;;17.17;11.40;;;;;;;-5.38;66.71;100063.00;1671537;84;21091;-75
2021/12/26 04:30:07;;;;;;;12.47;8.27;;;;;;;-5.36;66.71;100063.73;1666930;84;21098;-76
2021/12/26 04:32:33;;;;;;;15.80;10.13;;;;;;;-5.36;66.72;100067.63;1642564;86;21057;-77
2021/12/26 04:35:00;;;;;;;18.27;9.10;;;;;;;-5.36;66.57;100068.93;1639908;83;21054;-77
2021/12/26 04:37:26;;;;;;;12.00;7.67;;;;;;;-5.39;66.71;100068.28;1657039;85;21080;-79
2021/12/26 04:39:52;;;;;;;18.25;8.80;;;;;;;-5.44;66.76;100067.72;1637605;85;21068;-77
2021/12/26 04:42:18;;;;;;;15.80;8.55;;;;;;;-5.44;67.11;100062.52;1660897;85;21097;-78
2021/12/26 04:45:05;;;;;;;16.27;7.57;;;;;;;-5.40;67.11;100066.16;1641288;85;21000;-78
2021/12/26 04:47:50;;;;;;;15.00;9.63;;;;;;;-5.43;67.07;100071.52;1672341;85;21607;-75
2021/12/26 04:50:22;;;;;;;15.77;7.80;;;;;;;-5.52;66.88;100066.44;1662484;85;20971;-75
2021/12/26 04:52:53;;;;;;;14.47;8.10;;;;;;;-5.59;67.07;100067.73;1656354;84;21021;-75
2021/12/26 04:55:24;;;;;;;13.00;8.37;;;;;;;-5.64;67.39;100077.55;1672220;84;21023;-75
2021/12/26 04:57:52;;;;;;;17.57;7.50;;;;;;;-5.67;67.54;100074.68;1668923;84;21847;-73
2021/12/26 05:00:23;;;;;;;12.67;7.70;;;;;;;-5.67;67.77;100081.61;1650715;84;21052;-78
2021/12/26 05:02:50;;;;;;;11.53;8.03;;;;;;;-5.69;67.84;100081.73;1656299;84;21585;-77
2021/12/26 05:05:18;;;;;;;14.77;7.13;;;;;;;-5.73;67.98;100083.28;1660025;85;21049;-76
2021/12/26 05:07:45;;;;;;;14.80;8.80;;;;;;;-5.79;68.30;100083.65;1659586;85;22311;-74
2021/12/26 05:10:13;;;;;;;12.60;9.00;;;;;;;-5.80;68.62;100090.61;1657545;85;21520;-72
2021/12/26 05:12:42;;;;;;;14.03;8.90;;;;;;;-5.79;68.42;100092.27;1646366;84;21336;-74
2021/12/26 05:15:11;;;;;;;13.08;8.53;;;;;;;-5.83;68.48;100097.73;1638298;86;21022;-72
2021/12/26 05:17:42;;;;;;;14.50;8.13;;;;;;;-5.87;68.43;100100.97;1660176;85;21164;-73
2021/12/26 05:20:12;;;;;;;15.47;8.90;;;;;;;-5.90;68.51;100099.84;1659140;85;21030;-73
2021/12/26 05:22:39;;;;;;;12.63;8.20;;;;;;;-5.92;68.55;100104.29;1659052;85;21002;-75
2021/12/26 05:25:07;;;;;;;14.33;8.98;;;;;;;-5.91;68.69;100109.39;1652290;86;21524;-73
2021/12/26 05:27:36;;;;;;;16.27;9.87;;;;;;;-5.88;68.58;100107.94;1654690;86;21120;-76
2021/12/26 05:30:06;;;;;;;13.20;8.73;;;;;;;-5.85;68.69;100108.20;1664043;85;21034;-74
2021/12/26 05:32:33;;;;;;;15.40;8.83;;;;;;;-5.79;68.59;100109.61;1638024;86;21105;-74
2021/12/26 05:34:59;;;;;;;;;;;;;;;-5.81;68.54;100109.70;1649062;82;21013;-74
2021/12/26 05:37:27;;;;;;;14.97;8.23;;;;;;;-5.79;68.51;100109.14;1614255;87;20476;-73
2021/12/26 05:39:55;;;;;;;16.60;9.07;;;;;;;-5.81;68.51;100113.59;1625092;87;21526;-73
2021/12/26 05:42:21;;;;;;;17.37;10.20;;;;;;;-5.79;68.42;100118.70;1622784;87;21598;-74
2021/12/26 05:44:48;;;;;;;14.23;9.48;;;;;;;-5.79;68.42;100118.22;1631524;86;21075;-74
2021/12/26 05:47:15;;;;;;;14.80;8.77;;;;;;;-5.76;68.39;100117.23;1637861;86;21117;-74
2021/12/26 05:49:43;;;;;;;10.53;7.87;;;;;;;-5.77;68.32;100122.86;1637484;86;21071;-74
2021/12/26 05:52:12;;;;;;;12.93;8.83;;;;;;;-5.80;68.19;100126.95;1642500;86;21067;-69
2021/12/26 05:54:43;;;;;;;15.43;8.93;;;;;;;-5.81;68.35;100129.16;1599301;88;21483;-67
2021/12/26 05:57:09;;;;;;;15.60;10.98;;;;;;;-5.83;68.31;100128.89;1659360;85;21546;-67
2021/12/26 05:59:36;;;;;;;;;;;;;;;-5.84;68.51;100131.92;1646575;85;21039;-73
2021/12/26 06:02:03;;;;;;;16.57;9.40;;;;;;;-5.80;68.47;100127.39;1623082;86;20470;-72
2021/12/26 06:04:30;;;;;;;16.00;10.43;;;;;;;-5.86;68.48;100136.38;1595369;88;21148;-74
2021/12/26 06:06:59;;;;;;;18.23;11.17;;;;;;;-5.82;68.59;100138.33;1615176;87;21084;-73
2021/12/26 06:09:27;;;;;;;14.63;9.80;;;;;;;-5.85;68.48;100141.95;1606344;88;21079;-74
2021/12/26 06:11:53;;;;;;;;;;;;;;;-5.84;68.58;100148.80;1623077;86;21077;-73
2021/12/26 06:14:20;;;;;;;18.40;10.07;;;;;;;-5.83;68.70;100147.06;1666392;84;20498;-76
2021/12/26 06:16:46;;;;;;;16.37;8.70;;;;;;;-5.87;68.81;100152.41;1647324;86;21581;-74
2021/12/26 06:19:17;;;;;;;16.00;9.93;;;;;;;-5.88;68.91;100149.47;1671706;84;21054;-75
2021/12/26 06:22:06;;;;;;;18.47;10.23;;;;;;;-5.87;68.86;100152.41;1665079;84;21596;-74
2021/12/26 06:24:34;;;;;;;17.93;9.83;;;;;;;-5.85;68.92;100151.51;1653836;84;21755;-74
2021/12/26 06:27:20;;;;;;;15.63;9.63;;;;;;;-5.83;68.85;100153.08;1667119;85;21114;-74
2021/12/26 06:29:49;;;;;;;14.53;10.10;;;;;;;-5.82;68.92;100163.00;1616428;85;21103;-76
2021/12/26 06:32:26;;;;;;;15.20;9.87;;;;;;;-5.76;68.77;100158.77;1662356;85;20999;-74
2021/12/26 06:35:12;;;;;;;14.27;10.80;;;;;;;-5.75;68.79;100156.53;1652398;85;21067;-73
2021/12/26 06:37:57;;;;;;;15.87;9.87;;;;;;;-5.72;68.70;100152.00;1659492;85;21107;-73
2021/12/26 06:40:42;;;;;;;17.00;10.53;;;;;;;-5.68;68.84;100151.36;1664553;85;21839;-73
2021/12/26 06:43:29;;;;;;;19.37;10.60;;;;;;;-5.62;68.73;100161.39;1665216;84;21118;-75
2021/12/26 06:46:15;;;;;;;17.97;10.97;;;;;;;-5.55;68.84;100160.11;1661577;84;21019;-72
2021/12/26 06:48:59;;;;;;;17.90;10.17;;;;;;;-5.48;68.77;100158.00;1675762;85;21019;-77
2021/12/26 06:51:25;;;;;;;21.60;10.72;;;;;;;-5.38;68.54;100172.11;1665966;85;21632;-77
2021/12/26 06:53:51;;;;;;;20.52;12.60;;;;;;;-5.32;68.63;100167.84;1665004;85;21075;-75
2021/12/26 06:56:17;;;;;;;18.30;10.82;;;;;;;-5.19;68.56;100167.95;1655801;81;21317;-77
2021/12/26 06:58:44;;;;;;;;;;;;;;;-5.11;68.10;100167.02;1663967;85;21056;-78
2021/12/26 07:01:10;;;;;;;25.33;12.23;;;;;;;-5.04;67.84;100168.80;1663389;84;20113;-76
2021/12/26 07:03:37;;;;;;;25.75;13.75;;;;;;;-5.08;67.42;100164.72;1667213;85;21557;-77
2021/12/26 07:06:03;;;;;;;20.82;13.88;;;;;;;-5.07;67.39;100167.67;1670162;85;21030;-78
2021/12/26 07:08:29;;;;;;;20.62;10.88;;;;;;;-5.02;67.37;100161.73;1678393;85;20995;-78
2021/12/26 07:10:57;;;;;;;22.77;13.70;;;;;;;-4.97;67.18;100158.84;1661487;85;21106;-70
2021/12/26 07:13:23;;;;;;;19.63;12.67;;;;;;;-4.93;67.14;100155.98;1670429;85;21061;-75
2021/12/26 07:15:52;;;;;;;20.03;12.00;;;;;;;-4.85;66.94;100152.08;1670580;85;21103;-77
2021/12/26 07:18:19;;;;;;;21.60;11.90;;;;;;;-4.80;66.76;100150.88;1664542;85;21607;-79
2021/12/26 07:20:46;;;;;;;22.17;12.63;;;;;;;-4.74;66.89;100156.16;1664840;85;21062;-72
2021/12/26 07:23:27;;;;;;;17.50;9.97;;;;;;;-4.67;66.70;100159.20;1698721;82;21636;-73
2021/12/26 07:25:55;;;;;;;19.57;11.00;;;;;;;-4.65;66.08;100163.39;1718629;81;21556;-72
2021/12/26 07:28:23;;;;;;;21.65;11.40;;;;;;;-4.62;66.13;100159.28;1705595;82;21524;-71
2021/12/26 07:31:09;;;;;;;18.52;11.38;;;;;;;-4.58;66.01;100163.83;1717205;82;21053;-73
2021/12/26 07:33:36;;;;;;;18.10;11.25;;;;;;;-4.52;65.76;100161.70;1714038;82;21009;-74
2021/12/26 07:36:06;;;;;;;18.07;10.63;;;;;;;-4.52;65.57;100157.80;1717058;82;21103;-74
2021/12/26 07:38:37;;;;;;;16.07;11.37;;;;;;;-4.57;65.36;100158.53;1714079;82;21029;-73
2021/12/26 07:41:03;;;;;;;17.75;11.38;;;;;;;-4.58;65.54;100168.56;1721691;82;20977;-75
2021/12/26 07:43:32;;;;;;;18.37;10.33;;;;;;;-4.63;65.60;100169.33;1714220;82;21301;-74
2021/12/26 07:46:18;;;;;;;21.57;11.60;;;;;;;-4.59;65.71;100169.50;1679395;83;21255;-74
2021/12/26 07:48:47;;;;;;;21.17;11.57;;;;;;;-5.03;65.91;100086.45;1685731;83;21508;-73
2021/12/26 07:51:15;;;;;;;20.17;12.00;;;;;;;-4.43;65.80;100182.85;1688894;83;21018;-72
2021/12/26 07:54:03;;;;;;;17.77;10.57;;;;;;;-4.35;65.84;100181.45;1682465;84;21078;-73
2021/12/26 07:56:40;;;;;;;20.60;10.57;;;;;;;-4.24;65.59;100185.95;1688826;83;21114;-74
2021/12/26 07:59:25;;;;;;;17.10;10.17;;;;;;;-4.14;65.30;100181.85;1689260;83;21083;-75
2021/12/26 08:02:15;;;;;;;20.13;10.97;;;;;;;-4.07;65.40;100182.28;1717689;82;21054;-72
2021/12/26 08:04:55;;;;;;;19.40;10.27;;;;;;;-3.95;65.41;100187.19;1721209;82;21082;-74
2021/12/26 08:07:26;;;;;;;20.47;11.47;;;;;;;-3.84;64.84;100184.72;1723709;82;21040;-75
2021/12/26 08:09:52;;;;;;;18.85;10.65;;;;;;;-3.72;64.65;100176.09;1719807;82;21558;-73
2021/12/26 08:12:20;;;;;;;15.80;9.67;;;;;;;-3.60;64.30;100175.77;1722208;82;21012;-72
2021/12/26 08:14:46;;;;;;;14.00;9.40;;;;;;;-3.53;63.81;100173.58;1722351;82;21482;-73
2021/12/26 08:17:13;;;;;;;16.57;9.88;;;;;;;-3.51;63.60;100170.41;1708901;82;21051;-75
2021/12/26 08:19:40;;;;;;;15.70;10.08;;;;;;;-3.48;63.89;100167.60;1711632;82;21092;-75
2021/12/26 08:22:06;;;;;;;17.45;9.03;;;;;;;-3.38;63.76;100163.42;1721647;82;21033;-73
2021/12/26 08:24:34;;;;;;;14.53;9.67;;;;;;;-3.32;63.36;100160.88;1715546;82;21035;-75
2021/12/26 08:27:00;;;;;;;15.48;9.15;;;;;;;-3.25;63.03;100153.49;1709635;83;21018;-76
2021/12/26 08:29:28;;;;;;;16.97;9.57;;;;;;;-3.27;62.67;100154.89;1707999;82;21023;-69
2021/12/26 08:31:59;;;;;;;15.03;8.33;;;;;;;-3.20;62.53;100151.38;1709545;82;21067;-67
2021/12/26 08:34:24;;;;;;;16.53;9.90;;;;;;;-3.22;62.66;100150.21;1713686;82;21032;-73
2021/12/26 08:37:02;;;;;;;16.07;9.77;;;;;;;-3.17;62.76;100152.48;1704551;82;21147;-73
2021/12/26 08:39:37;;;;;;;15.60;10.47;;;;;;;-3.12;62.68;100149.11;1714310;82;22113;-70
2021/12/26 08:42:06;;;;;;;15.63;9.33;;;;;;;-3.09;62.64;100151.96;1703725;80;21646;-70
2021/12/26 08:44:34;;;;;;;17.40;9.03;;;;;;;-3.04;62.46;100136.84;1754269;80;22021;-71
2021/12/26 08:47:02;;;;;;;15.03;8.67;;;;;;;-3.01;61.95;100139.25;1759432;80;21015;-71
2021/12/26 08:49:28;;;;;;;13.87;8.33;;;;;;;-2.98;61.83;100138.54;1726951;80;21123;-72
2021/12/26 08:51:55;;;;;;;21.52;11.10;;;;;;;-2.94;61.74;100132.64;1760961;80;21679;-73
2021/12/26 08:54:22;;;;;;;;;;;;;;;-2.87;61.57;100131.76;1763247;80;21009;-69
2021/12/26 08:56:50;;;;;;;14.60;9.50;;;;;;;-2.86;61.14;100124.28;1759383;80;20098;-69
2021/12/26 08:59:16;;;;;;;19.30;10.37;;;;;;;-2.86;61.47;100125.14;1751009;80;21159;-70
2021/12/26 09:01:45;;;;;;;18.30;10.28;;;;;;;-2.84;61.38;100128.47;1758113;80;20978;-74
2021/12/26 09:04:10;;;;;;;15.97;8.87;;;;;;;-2.77;61.15;100126.25;1753864;80;21045;-72
2021/12/26 09:06:36;;;;;;;14.18;9.43;;;;;;;-2.77;60.96;100134.08;1751718;80;21026;-75
2021/12/26 09:09:03;;;;;;;16.95;9.68;;;;;;;-2.73;60.54;100131.64;1744362;80;21132;-75
2021/12/26 09:11:31;;;;;;;17.43;10.10;;;;;;;-2.71;60.71;100118.02;1758887;79;21678;-77
2021/12/26 09:13:58;;;;;;;19.23;10.73;;;;;;;-2.71;60.96;100119.31;1729090;80;21038;-77
2021/12/26 09:16:24;;;;;;;16.87;10.65;;;;;;;-2.74;60.78;100122.13;1758851;80;21001;-76
2021/12/26 09:18:52;;;;;;;14.67;8.73;;;;;;;-2.74;60.85;100119.52;1758633;80;20998;-79
2021/12/26 09:21:18;;;;;;;19.92;10.58;;;;;;;-2.69;60.89;100116.13;1761428;80;21084;-78
2021/12/26 09:23:44;;;;;;;14.15;8.90;;;;;;;-2.64;61.02;100116.61;1741782;80;21486;-76
2021/12/26 09:26:10;;;;;;;18.00;9.20;;;;;;;-2.61;60.26;100116.41;1691448;83;21028;-75
2021/12/26 09:28:38;;;;;;;14.45;9.70;;;;;;;-2.64;60.28;100114.48;1760882;80;21074;-77
2021/12/26 09:31:05;;;;;;;14.77;9.93;;;;;;;-2.63;60.44;100115.68;1759701;80;21632;-80
2021/12/26 09:33:31;;;;;;;15.07;10.00;;;;;;;-2.63;60.29;100122.20;1762319;79;21084;-74
2021/12/26 09:35:57;;;;;;;17.82;8.95;;;;;;;-2.61;60.48;100119.02;1733707;80;20994;-76
2021/12/26 09:38:24;;;;;;;18.20;10.00;;;;;;;-2.65;60.47;100105.83;1761800;80;20994;-77
2021/12/26 09:40:50;;;;;;;14.98;10.93;;;;;;;-2.51;60.19;100123.09;1760189;80;20962;-79
2021/12/26 09:43:16;;;;;;;13.60;9.38;;;;;;;-2.48;59.93;100116.37;1757474;80;21094;-76
2021/12/26 09:45:42;;;;;;;14.13;9.93;;;;;;;-2.44;59.51;100124.33;1732033;79;21020;-76
2021/12/26 09:48:09;;;;;;;14.80;8.97;;;;;;;-2.45;59.72;100116.61;1729502;81;21463;-76
2021/12/26 09:50:35;;;;;;;14.00;9.18;;;;;;;-2.39;59.32;100116.19;1733775;81;21082;-77
2021/12/26 09:53:02;;;;;;;11.05;8.78;;;;;;;-2.40;59.20;100117.12;1724966;81;21051;-76
2021/12/26 09:55:30;;;;;;;17.90;9.50;;;;;;;-2.39;59.14;100110.97;1728850;80;21031;-78
2021/12/26 09:57:57;;;;;;;13.77;8.43;;;;;;;-2.28;59.22;100111.47;1707999;83;21017;-76
2021/12/26 10:00:32;;;;;;;20.23;10.83;;;;;;;-2.16;59.07;100114.52;1707508;82;21241;-78
2021/12/26 10:03:33;;;;;;;16.57;10.07;;;;;;;-2.04;58.65;100108.37;1708241;83;21515;-78
2021/12/26 10:06:13;;;;;;;21.03;10.40;;;;;;;-1.93;58.33;100106.77;1706599;84;21912;-76
2021/12/26 10:09:02;;;;;;;20.33;10.07;;;;;;;-1.87;58.14;100102.38;1685584;84;21098;-77
2021/12/26 10:11:35;;;;;;;16.87;10.70;;;;;;;-1.79;58.07;100097.41;1738538;81;21066;-77
2021/12/26 10:14:07;;;;;;;15.60;9.67;;;;;;;-1.70;57.82;100103.73;1667442;84;21036;-77
2021/12/26 10:16:41;;;;;;;16.87;8.57;;;;;;;-1.65;57.29;100101.62;1685612;83;21156;-78
2021/12/26 10:19:08;;;;;;;12.07;8.13;;;;;;;-1.62;57.34;100101.37;1710447;82;21072;-76
2021/12/26 10:21:47;;;;;;;14.37;7.97;;;;;;;-1.52;57.34;100108.06;1708688;82;21090;-76
2021/12/26 10:24:28;;;;;;;13.07;8.40;;;;;;;-1.38;56.50;100105.22;1706175;82;21103;-75
2021/12/26 10:27:06;;;;;;;14.30;8.77;;;;;;;-1.26;55.88;100102.13;1712483;83;21078;-76
2021/12/26 10:29:44;;;;;;;14.80;8.97;;;;;;;-1.22;55.60;100106.20;1711134;82;21044;-76
2021/12/26 10:32:19;;;;;;;14.78;9.35;;;;;;;-1.28;55.41;100100.96;1706434;82;21056;-77
2021/12/26 10:34:59;;;;;;;16.00;9.50;;;;;;;-1.29;55.62;100095.84;1709051;81;21024;-75
2021/12/26 10:37:39;;;;;;;15.17;9.33;;;;;;;-1.25;55.48;100091.55;1717038;82;20987;-77
2021/12/26 10:40:25;;;;;;;12.67;7.53;;;;;;;-1.20;55.73;100091.22;1709169;83;21071;-77
2021/12/26 10:42:56;;;;;;;16.23;7.83;;;;;;;-1.18;54.95;100093.23;1729185;82;21043;-80
2021/12/26 10:45:30;;;;;;;13.63;7.20;;;;;;;-1.25;54.85;100092.86;1699281;81;21065;-75
2021/12/26 10:48:04;;;;;;;11.40;8.30;;;;;;;-1.22;54.96;100093.12;1714576;82;21063;-75
2021/12/26 10:50:33;;;;;;;11.77;6.97;;;;;;;-1.27;55.06;100078.25;1713551;81;21070;-75
2021/12/26 10:53:04;;;;;;;10.87;8.13;;;;;;;-1.22;54.80;100093.12;1713412;82;21023;-71
2021/12/26 10:55:36;;;;;;;12.10;5.90;;;;;;;-1.26;54.47;100091.22;1714994;80;21078;-82
2021/12/26 10:58:10;;;;;;;11.57;7.10;;;;;;;-1.33;54.84;100083.48;1712569;81;21074;-83
2021/12/26 11:00:45;;;;;;;13.37;8.10;;;;;;;-1.32;54.75;100086.43;1713889;81;21556;-86
2021/12/26 11:03:22;;;;;;;16.97;7.50;;;;;;;-1.32;54.99;100082.99;1700788;82;21032;-77
2021/12/26 11:05:53;;;;;;;14.83;8.40;;;;;;;-1.25;54.90;100077.17;1716610;81;21024;-82
2021/12/26 11:08:37;;;;;;;15.53;8.27;;;;;;;-1.20;54.66;100088.12;1706382;83;21355;-84
2021/12/26 11:11:16;;;;;;;14.47;9.27;;;;;;;-1.19;54.67;100090.25;1725907;80;21038;-72
2021/12/26 11:13:45;;;;;;;18.13;11.23;;;;;;;-1.16;54.43;100097.05;1712004;83;21597;-74
2021/12/26 11:16:15;;;;;;;19.10;12.27;;;;;;;-1.16;54.56;100093.94;1747663;82;21083;-73
2021/12/26 11:18:49;;;;;;;20.87;13.33;;;;;;;-1.08;54.66;100088.94;1748298;81;20990;-72
2021/12/26 11:21:16;;;;;;;14.73;9.97;;;;;;;-1.04;54.63;100091.66;1747274;81;21004;-73
2021/12/26 11:23:44;;;;;;;16.60;9.10;;;;;;;-1.03;54.24;100089.42;1733924;81;21015;-73
2021/12/26 11:26:15;;;;;;;14.50;7.90;;;;;;;-1.02;54.30;100082.39;1698151;81;21043;-72
2021/12/26 11:28:46;;;;;;;15.97;7.77;;;;;;;-0.99;53.94;100084.30;1729387;81;21035;-72
2021/12/26 11:31:17;;;;;;;19.07;11.20;;;;;;;-1.00;53.97;100083.96;1732878;81;21038;-72
2021/12/26 11:33:54;;;;;;;19.70;13.07;;;;;;;-1.02;53.84;100089.79;1724670;81;21625;-73
2021/12/26 11:36:18;;;;;;;22.50;13.50;;;;;;;-1.04;53.82;100082.51;1727121;81;21143;-74
2021/12/26 11:38:49;;;;;;;16.53;12.03;;;;;;;-1.10;54.20;100089.53;1737721;81;21026;-74